This is the latest recevied weather packets stored in our database for station/object EA5CH. If no packets are shown the sender has not sent any weather packets the latest 10 day(s).
| Time | Temp. | Humidity | Pressure | Rain* | Wind** | Luminosity | Snow |
|---|---|---|---|---|---|---|---|
| 1777721738 | 20.56° C | 83% | 1021.6 hPa | 0 mm | - | - | - |
| 1777719319 | 20.56° C | 84% | 1022 hPa | 0 mm | - | - | - |
| 1777712719 | 21.11° C | 79% | 1022.3 hPa | 0 mm | - | - | - |
| 1777712119 | 20.56° C | 79% | 1022.3 hPa | 0 mm | - | - | - |
| 1777707919 | 20.56° C | 78% | 1022.3 hPa | 0 mm | - | - | - |
| 1777707319 | 20.56° C | 78% | 1022.3 hPa | 0 mm | - | - | - |
| 1777705519 | 20° C | 80% | 1022.2 hPa | 0 mm | - | - | - |
| 1777704920 | 19.44° C | 81% | 1022.2 hPa | 0 mm | - | - | - |
| 1777702519 | 18.89° C | 82% | 1022.3 hPa | 0 mm | - | - | - |
| 1777699519 | 17.78° C | 83% | 1022 hPa | 0 mm | - | - | - |
| 1777697719 | 17.78° C | 83% | 1021.7 hPa | 0 mm | - | - | - |
| 1777695919 | 17.78° C | 83% | 1021.8 hPa | 0 mm | - | - | - |
| 1777691719 | 17.22° C | 86% | 1022.1 hPa | 0 mm | - | - | - |
| 1777689319 | 17.22° C | 88% | 1022 hPa | 0 mm | - | - | - |
| 1777686939 | 17.22° C | 85% | 1022.3 hPa | 0 mm | - | - | - |
| 1777686319 | 17.78° C | 85% | 1022.4 hPa | 0 mm | - | - | - |
| 1777684519 | 17.22° C | 88% | 1022.7 hPa | 0 mm | - | - | - |
| 1777680919 | 16.67° C | 90% | 1023.3 hPa | 0 mm | - | - | - |
| 1777675539 | 17.78° C | 88% | 1023.5 hPa | 0 mm | - | - | - |
| 1777673119 | 18.33° C | 88% | 1023.6 hPa | 0 mm | - | - | - |
| 1777672519 | 18.33° C | 88% | 1023.6 hPa | 0 mm | - | - | - |
| 1777667120 | 18.89° C | 86% | 1023.4 hPa | 0 mm | - | - | - |
| 1777665320 | 18.89° C | 85% | 1023 hPa | 0 mm | - | - | - |
| 1777664718 | 18.89° C | 85% | 1022.9 hPa | 0 mm | - | - | - |
| 1777663538 | 18.89° C | 85% | 1022.7 hPa | 0 mm | - | - | - |
* Rain latest hour (hover to see other rain measurements)
** Current wind speed in m/s (hover to see current wind gust speed)